sensor_id;sensor_type;location;lat;lon;timestamp;temperature;humidity
27534;DHT22;14973;51.460;7.008;2022-12-08T00:00:37;4.40;99.90
27534;DHT22;14973;51.460;7.008;2022-12-08T00:03:03;4.40;99.90
27534;DHT22;14973;51.460;7.008;2022-12-08T00:05:28;4.40;99.90
27534;DHT22;14973;51.460;7.008;2022-12-08T00:08:13;4.40;99.90
27534;DHT22;14973;51.460;7.008;2022-12-08T00:10:57;4.40;99.90
27534;DHT22;14973;51.460;7.008;2022-12-08T00:13:23;4.40;99.90
27534;DHT22;14973;51.460;7.008;2022-12-08T00:15:48;4.40;99.90
27534;DHT22;14973;51.460;7.008;2022-12-08T00:18:14;4.40;99.90
27534;DHT22;14973;51.460;7.008;2022-12-08T00:20:39;4.40;99.90
27534;DHT22;14973;51.460;7.008;2022-12-08T00:23:05;4.40;99.90
27534;DHT22;14973;51.460;7.008;2022-12-08T00:25:33;4.30;99.90
27534;DHT22;14973;51.460;7.008;2022-12-08T00:27:59;4.30;99.90
27534;DHT22;14973;51.460;7.008;2022-12-08T00:30:25;4.30;99.90
27534;DHT22;14973;51.460;7.008;2022-12-08T00:32:50;4.20;99.90
27534;DHT22;14973;51.460;7.008;2022-12-08T00:35:16;4.30;99.90
27534;DHT22;14973;51.460;7.008;2022-12-08T00:37:41;4.20;99.90
27534;DHT22;14973;51.460;7.008;2022-12-08T00:40:07;4.30;99.90
27534;DHT22;14973;51.460;7.008;2022-12-08T00:42:33;4.30;99.90
27534;DHT22;14973;51.460;7.008;2022-12-08T00:44:59;4.30;99.90
27534;DHT22;14973;51.460;7.008;2022-12-08T00:47:24;4.30;99.90
27534;DHT22;14973;51.460;7.008;2022-12-08T00:49:50;4.30;99.90
27534;DHT22;14973;51.460;7.008;2022-12-08T00:52:16;4.30;99.90
27534;DHT22;14973;51.460;7.008;2022-12-08T00:54:41;4.30;99.90
27534;DHT22;14973;51.460;7.008;2022-12-08T00:57:07;4.30;99.90
27534;DHT22;14973;51.460;7.008;2022-12-08T00:59:33;4.30;99.90
27534;DHT22;14973;51.460;7.008;2022-12-08T01:01:58;4.30;99.90
27534;DHT22;14973;51.460;7.008;2022-12-08T01:04:24;4.30;99.90
27534;DHT22;14973;51.460;7.008;2022-12-08T01:06:50;4.30;99.90
27534;DHT22;14973;51.460;7.008;2022-12-08T01:09:17;4.20;99.90
27534;DHT22;14973;51.460;7.008;2022-12-08T01:11:44;4.20;99.90
27534;DHT22;14973;51.460;7.008;2022-12-08T01:14:10;4.20;99.90
27534;DHT22;14973;51.460;7.008;2022-12-08T01:16:36;4.20;99.90
27534;DHT22;14973;51.460;7.008;2022-12-08T01:19:02;4.20;99.90
27534;DHT22;14973;51.460;7.008;2022-12-08T01:21:28;4.20;99.90
27534;DHT22;14973;51.460;7.008;2022-12-08T01:23:53;4.10;99.90
27534;DHT22;14973;51.460;7.008;2022-12-08T01:26:20;4.10;99.90
27534;DHT22;14973;51.460;7.008;2022-12-08T01:28:46;4.10;99.90
27534;DHT22;14973;51.460;7.008;2022-12-08T01:31:17;4.00;99.90
27534;DHT22;14973;51.460;7.008;2022-12-08T01:33:43;4.00;99.90
27534;DHT22;14973;51.460;7.008;2022-12-08T01:36:19;4.00;99.90
27534;DHT22;14973;51.460;7.008;2022-12-08T01:38:45;3.90;99.90
27534;DHT22;14973;51.460;7.008;2022-12-08T01:41:15;4.00;99.90
27534;DHT22;14973;51.460;7.008;2022-12-08T01:43:57;4.00;99.90
27534;DHT22;14973;51.460;7.008;2022-12-08T01:46:24;4.00;99.90
27534;DHT22;14973;51.460;7.008;2022-12-08T01:49:03;4.00;99.90
27534;DHT22;14973;51.460;7.008;2022-12-08T01:51:32;4.10;99.90
27534;DHT22;14973;51.460;7.008;2022-12-08T01:54:01;4.10;99.90
27534;DHT22;14973;51.460;7.008;2022-12-08T01:56:33;4.10;99.90
27534;DHT22;14973;51.460;7.008;2022-12-08T01:58:59;4.10;99.90
27534;DHT22;14973;51.460;7.008;2022-12-08T02:01:26;4.10;99.90
27534;DHT22;14973;51.460;7.008;2022-12-08T02:04:00;4.10;99.90
27534;DHT22;14973;51.460;7.008;2022-12-08T02:06:29;4.20;99.90
27534;DHT22;14973;51.460;7.008;2022-12-08T02:08:58;4.20;99.90
27534;DHT22;14973;51.460;7.008;2022-12-08T02:11:25;4.10;99.90
27534;DHT22;14973;51.460;7.008;2022-12-08T02:13:51;4.10;99.90
27534;DHT22;14973;51.460;7.008;2022-12-08T02:16:37;4.20;99.90
27534;DHT22;14973;51.460;7.008;2022-12-08T02:25:02;4.20;99.90
27534;DHT22;14973;51.460;7.008;2022-12-08T02:30:19;4.20;99.90
27534;DHT22;14973;51.460;7.008;2022-12-08T02:39:21;4.20;99.90
27534;DHT22;14973;51.460;7.008;2022-12-08T02:42:09;4.20;99.90
27534;DHT22;14973;51.460;7.008;2022-12-08T02:47:14;4.20;99.90
27534;DHT22;14973;51.460;7.008;2022-12-08T02:49:41;4.30;99.90
27534;DHT22;14973;51.460;7.008;2022-12-08T02:54:42;4.30;99.90
27534;DHT22;14973;51.460;7.008;2022-12-08T03:00:14;4.30;99.90
27534;DHT22;14973;51.460;7.008;2022-12-08T03:08:15;4.40;99.90
27534;DHT22;14973;51.460;7.008;2022-12-08T03:10:55;4.40;99.90
27534;DHT22;14973;51.460;7.008;2022-12-08T03:13:58;4.40;99.90
27534;DHT22;14973;51.460;7.008;2022-12-08T03:16:20;4.40;99.90
27534;DHT22;14973;51.460;7.008;2022-12-08T03:18:51;4.40;99.90
27534;DHT22;14973;51.460;7.008;2022-12-08T03:21:19;4.40;99.90
27534;DHT22;14973;51.460;7.008;2022-12-08T03:23:47;4.40;99.90
27534;DHT22;14973;51.460;7.008;2022-12-08T03:26:29;4.40;99.90
27534;DHT22;14973;51.460;7.008;2022-12-08T03:28:56;4.40;99.90
27534;DHT22;14973;51.460;7.008;2022-12-08T03:31:24;4.40;99.90
27534;DHT22;14973;51.460;7.008;2022-12-08T03:33:53;4.50;99.90
27534;DHT22;14973;51.460;7.008;2022-12-08T03:36:21;4.40;99.90
27534;DHT22;14973;51.460;7.008;2022-12-08T03:38:50;4.40;99.90
27534;DHT22;14973;51.460;7.008;2022-12-08T03:41:17;4.40;99.90
27534;DHT22;14973;51.460;7.008;2022-12-08T03:43:51;4.40;99.90
27534;DHT22;14973;51.460;7.008;2022-12-08T03:46:18;4.40;99.90
27534;DHT22;14973;51.460;7.008;2022-12-08T03:48:44;4.50;99.90
27534;DHT22;14973;51.460;7.008;2022-12-08T03:51:10;4.40;99.90
27534;DHT22;14973;51.460;7.008;2022-12-08T03:53:35;4.50;99.90
27534;DHT22;14973;51.460;7.008;2022-12-08T03:56:12;4.50;99.90
27534;DHT22;14973;51.460;7.008;2022-12-08T03:58:40;4.50;99.90
27534;DHT22;14973;51.460;7.008;2022-12-08T04:01:06;4.50;99.90
27534;DHT22;14973;51.460;7.008;2022-12-08T04:03:31;4.60;99.90
27534;DHT22;14973;51.460;7.008;2022-12-08T04:05:57;4.60;99.90
27534;DHT22;14973;51.460;7.008;2022-12-08T04:08:23;4.60;99.90
27534;DHT22;14973;51.460;7.008;2022-12-08T04:10:48;4.50;99.90
27534;DHT22;14973;51.460;7.008;2022-12-08T04:13:14;4.60;99.90
27534;DHT22;14973;51.460;7.008;2022-12-08T04:15:44;4.50;99.90
27534;DHT22;14973;51.460;7.008;2022-12-08T04:18:10;4.50;99.90
27534;DHT22;14973;51.460;7.008;2022-12-08T04:20:41;4.50;99.90
27534;DHT22;14973;51.460;7.008;2022-12-08T04:23:07;4.50;99.90
27534;DHT22;14973;51.460;7.008;2022-12-08T04:25:33;4.50;99.90
27534;DHT22;14973;51.460;7.008;2022-12-08T04:27:59;4.50;99.90
27534;DHT22;14973;51.460;7.008;2022-12-08T04:30:25;4.50;99.90
27534;DHT22;14973;51.460;7.008;2022-12-08T04:32:50;4.50;99.90
27534;DHT22;14973;51.460;7.008;2022-12-08T04:35:16;4.50;99.90
27534;DHT22;14973;51.460;7.008;2022-12-08T04:37:42;4.60;99.90
27534;DHT22;14973;51.460;7.008;2022-12-08T04:40:09;4.60;99.90
27534;DHT22;14973;51.460;7.008;2022-12-08T04:42:35;4.50;99.90
27534;DHT22;14973;51.460;7.008;2022-12-08T04:45:01;4.50;99.90
27534;DHT22;14973;51.460;7.008;2022-12-08T04:47:26;4.50;99.90
27534;DHT22;14973;51.460;7.008;2022-12-08T04:49:52;4.50;99.90
27534;DHT22;14973;51.460;7.008;2022-12-08T04:52:18;4.50;99.90
27534;DHT22;14973;51.460;7.008;2022-12-08T04:54:43;4.50;99.90
27534;DHT22;14973;51.460;7.008;2022-12-08T04:57:09;4.60;99.90
27534;DHT22;14973;51.460;7.008;2022-12-08T04:59:35;4.60;99.90
27534;DHT22;14973;51.460;7.008;2022-12-08T05:02:01;4.50;99.90
27534;DHT22;14973;51.460;7.008;2022-12-08T05:04:26;4.50;99.90
27534;DHT22;14973;51.460;7.008;2022-12-08T05:06:52;4.50;99.90
27534;DHT22;14973;51.460;7.008;2022-12-08T05:09:18;4.50;99.90
27534;DHT22;14973;51.460;7.008;2022-12-08T05:11:43;4.50;99.90
27534;DHT22;14973;51.460;7.008;2022-12-08T05:14:13;4.50;99.90
27534;DHT22;14973;51.460;7.008;2022-12-08T05:16:40;4.50;99.90
27534;DHT22;14973;51.460;7.008;2022-12-08T05:19:05;4.50;99.90
27534;DHT22;14973;51.460;7.008;2022-12-08T05:21:31;4.50;99.90
27534;DHT22;14973;51.460;7.008;2022-12-08T05:23:57;4.50;99.90
27534;DHT22;14973;51.460;7.008;2022-12-08T05:26:22;4.50;99.90
27534;DHT22;14973;51.460;7.008;2022-12-08T05:28:48;4.50;99.90
27534;DHT22;14973;51.460;7.008;2022-12-08T05:31:15;4.50;99.90
27534;DHT22;14973;51.460;7.008;2022-12-08T05:33:41;4.60;99.90
27534;DHT22;14973;51.460;7.008;2022-12-08T05:36:08;4.50;99.90
27534;DHT22;14973;51.460;7.008;2022-12-08T05:38:34;4.60;99.90
27534;DHT22;14973;51.460;7.008;2022-12-08T05:41:00;4.60;99.90
27534;DHT22;14973;51.460;7.008;2022-12-08T05:43:26;4.60;99.90
27534;DHT22;14973;51.460;7.008;2022-12-08T05:45:51;4.70;99.90
27534;DHT22;14973;51.460;7.008;2022-12-08T05:48:17;4.70;99.90
27534;DHT22;14973;51.460;7.008;2022-12-08T05:50:47;4.60;99.90
27534;DHT22;14973;51.460;7.008;2022-12-08T05:53:13;4.60;99.90
27534;DHT22;14973;51.460;7.008;2022-12-08T05:55:38;4.60;99.90
27534;DHT22;14973;51.460;7.008;2022-12-08T05:58:05;4.60;99.90
27534;DHT22;14973;51.460;7.008;2022-12-08T06:00:31;4.50;99.90
27534;DHT22;14973;51.460;7.008;2022-12-08T06:03:00;4.60;99.90
27534;DHT22;14973;51.460;7.008;2022-12-08T06:05:25;4.60;99.90
27534;DHT22;14973;51.460;7.008;2022-12-08T06:07:51;4.60;99.90
27534;DHT22;14973;51.460;7.008;2022-12-08T06:10:17;4.50;99.90
27534;DHT22;14973;51.460;7.008;2022-12-08T06:12:42;4.50;99.90
27534;DHT22;14973;51.460;7.008;2022-12-08T06:15:08;4.50;99.90
27534;DHT22;14973;51.460;7.008;2022-12-08T06:17:34;4.40;99.90
27534;DHT22;14973;51.460;7.008;2022-12-08T06:19:59;4.40;99.90
27534;DHT22;14973;51.460;7.008;2022-12-08T06:22:25;4.30;99.90
27534;DHT22;14973;51.460;7.008;2022-12-08T06:24:51;4.30;99.90
27534;DHT22;14973;51.460;7.008;2022-12-08T06:27:16;4.30;99.90
27534;DHT22;14973;51.460;7.008;2022-12-08T06:29:42;4.30;99.90
27534;DHT22;14973;51.460;7.008;2022-12-08T06:32:07;4.30;99.90
27534;DHT22;14973;51.460;7.008;2022-12-08T06:34:33;4.30;99.90
27534;DHT22;14973;51.460;7.008;2022-12-08T06:36:58;4.40;99.90
27534;DHT22;14973;51.460;7.008;2022-12-08T06:39:31;4.40;99.90
27534;DHT22;14973;51.460;7.008;2022-12-08T06:41:56;4.40;99.90
27534;DHT22;14973;51.460;7.008;2022-12-08T06:44:40;4.40;99.90
27534;DHT22;14973;51.460;7.008;2022-12-08T06:47:06;4.40;99.90
27534;DHT22;14973;51.460;7.008;2022-12-08T06:49:32;4.30;99.90
27534;DHT22;14973;51.460;7.008;2022-12-08T06:51:57;4.40;99.90
27534;DHT22;14973;51.460;7.008;2022-12-08T06:54:23;4.40;99.90
27534;DHT22;14973;51.460;7.008;2022-12-08T06:56:48;4.30;99.90
27534;DHT22;14973;51.460;7.008;2022-12-08T06:59:14;4.20;99.90
27534;DHT22;14973;51.460;7.008;2022-12-08T07:01:39;4.20;99.90
27534;DHT22;14973;51.460;7.008;2022-12-08T07:04:05;4.20;99.90
27534;DHT22;14973;51.460;7.008;2022-12-08T07:06:31;4.20;99.90
27534;DHT22;14973;51.460;7.008;2022-12-08T07:08:56;4.20;99.90
27534;DHT22;14973;51.460;7.008;2022-12-08T07:11:22;4.20;99.90
27534;DHT22;14973;51.460;7.008;2022-12-08T07:13:48;4.20;99.90
27534;DHT22;14973;51.460;7.008;2022-12-08T07:16:14;4.20;99.90
27534;DHT22;14973;51.460;7.008;2022-12-08T07:18:39;4.20;99.90
27534;DHT22;14973;51.460;7.008;2022-12-08T07:21:09;4.20;99.90
27534;DHT22;14973;51.460;7.008;2022-12-08T07:23:35;4.20;99.90
27534;DHT22;14973;51.460;7.008;2022-12-08T07:26:03;4.20;99.90
27534;DHT22;14973;51.460;7.008;2022-12-08T07:28:33;4.20;99.90
27534;DHT22;14973;51.460;7.008;2022-12-08T07:30:59;4.20;99.90
27534;DHT22;14973;51.460;7.008;2022-12-08T07:33:25;4.20;99.90
27534;DHT22;14973;51.460;7.008;2022-12-08T07:36:02;4.30;99.90
27534;DHT22;14973;51.460;7.008;2022-12-08T07:38:28;4.30;99.90
27534;DHT22;14973;51.460;7.008;2022-12-08T07:40:54;4.20;99.90
27534;DHT22;14973;51.460;7.008;2022-12-08T07:43:21;4.20;99.90
27534;DHT22;14973;51.460;7.008;2022-12-08T07:45:47;4.20;99.90
27534;DHT22;14973;51.460;7.008;2022-12-08T07:48:12;4.20;99.90
27534;DHT22;14973;51.460;7.008;2022-12-08T07:50:38;4.20;99.90
27534;DHT22;14973;51.460;7.008;2022-12-08T07:53:05;4.20;99.90
27534;DHT22;14973;51.460;7.008;2022-12-08T07:55:30;4.30;99.90
27534;DHT22;14973;51.460;7.008;2022-12-08T07:57:56;4.30;99.90
27534;DHT22;14973;51.460;7.008;2022-12-08T08:00:22;4.30;99.90
27534;DHT22;14973;51.460;7.008;2022-12-08T08:02:47;4.30;99.90
27534;DHT22;14973;51.460;7.008;2022-12-08T08:05:13;4.30;99.90
27534;DHT22;14973;51.460;7.008;2022-12-08T08:07:40;4.30;99.90
27534;DHT22;14973;51.460;7.008;2022-12-08T08:10:11;4.20;99.90
27534;DHT22;14973;51.460;7.008;2022-12-08T08:12:37;4.20;99.90
27534;DHT22;14973;51.460;7.008;2022-12-08T08:15:05;4.10;99.90
27534;DHT22;14973;51.460;7.008;2022-12-08T08:17:31;4.10;99.90
27534;DHT22;14973;51.460;7.008;2022-12-08T08:19:57;4.10;99.90
27534;DHT22;14973;51.460;7.008;2022-12-08T08:22:24;4.10;99.90
27534;DHT22;14973;51.460;7.008;2022-12-08T08:24:50;4.10;99.90
27534;DHT22;14973;51.460;7.008;2022-12-08T08:27:16;4.10;99.90
27534;DHT22;14973;51.460;7.008;2022-12-08T08:29:42;4.10;99.90
27534;DHT22;14973;51.460;7.008;2022-12-08T08:32:07;4.10;99.90
27534;DHT22;14973;51.460;7.008;2022-12-08T08:34:33;4.20;99.90
27534;DHT22;14973;51.460;7.008;2022-12-08T08:36:59;4.20;99.90
27534;DHT22;14973;51.460;7.008;2022-12-08T08:39:24;4.20;99.90
27534;DHT22;14973;51.460;7.008;2022-12-08T08:41:50;4.20;99.90
27534;DHT22;14973;51.460;7.008;2022-12-08T08:44:15;4.20;99.90
27534;DHT22;14973;51.460;7.008;2022-12-08T08:46:41;4.20;99.90
27534;DHT22;14973;51.460;7.008;2022-12-08T08:49:07;4.20;99.90
27534;DHT22;14973;51.460;7.008;2022-12-08T08:51:32;4.20;99.90
27534;DHT22;14973;51.460;7.008;2022-12-08T08:53:58;4.30;99.90
27534;DHT22;14973;51.460;7.008;2022-12-08T08:56:24;4.20;99.90
27534;DHT22;14973;51.460;7.008;2022-12-08T08:58:51;4.30;99.90
27534;DHT22;14973;51.460;7.008;2022-12-08T09:01:23;4.30;99.90
27534;DHT22;14973;51.460;7.008;2022-12-08T09:03:49;4.30;99.90
27534;DHT22;14973;51.460;7.008;2022-12-08T09:06:16;4.40;99.90
27534;DHT22;14973;51.460;7.008;2022-12-08T09:08:42;4.40;99.90
27534;DHT22;14973;51.460;7.008;2022-12-08T09:11:08;4.40;99.90
27534;DHT22;14973;51.460;7.008;2022-12-08T09:13:34;4.30;99.90
27534;DHT22;14973;51.460;7.008;2022-12-08T09:16:05;4.30;99.90
27534;DHT22;14973;51.460;7.008;2022-12-08T09:18:31;4.30;99.90
27534;DHT22;14973;51.460;7.008;2022-12-08T09:21:06;4.30;99.90
27534;DHT22;14973;51.460;7.008;2022-12-08T09:23:33;4.30;99.90
27534;DHT22;14973;51.460;7.008;2022-12-08T09:25:59;4.30;99.90
27534;DHT22;14973;51.460;7.008;2022-12-08T09:28:25;4.40;99.90
27534;DHT22;14973;51.460;7.008;2022-12-08T09:30:51;4.30;99.90
27534;DHT22;14973;51.460;7.008;2022-12-08T09:33:17;4.30;99.90
27534;DHT22;14973;51.460;7.008;2022-12-08T09:35:42;4.30;99.90
27534;DHT22;14973;51.460;7.008;2022-12-08T09:38:08;4.20;99.90
27534;DHT22;14973;51.460;7.008;2022-12-08T09:40:47;4.30;99.90
27534;DHT22;14973;51.460;7.008;2022-12-08T09:43:41;4.30;99.90
27534;DHT22;14973;51.460;7.008;2022-12-08T09:46:13;4.30;99.90
27534;DHT22;14973;51.460;7.008;2022-12-08T09:48:47;4.40;99.90
27534;DHT22;14973;51.460;7.008;2022-12-08T09:51:16;4.40;99.90
27534;DHT22;14973;51.460;7.008;2022-12-08T09:53:47;4.50;99.90
27534;DHT22;14973;51.460;7.008;2022-12-08T09:58:59;4.50;99.90
27534;DHT22;14973;51.460;7.008;2022-12-08T10:01:28;4.50;99.90
27534;DHT22;14973;51.460;7.008;2022-12-08T10:03:56;4.40;99.90
27534;DHT22;14973;51.460;7.008;2022-12-08T10:06:54;4.40;99.90
27534;DHT22;14973;51.460;7.008;2022-12-08T10:15:27;4.50;99.90
27534;DHT22;14973;51.460;7.008;2022-12-08T10:17:57;4.50;99.90
27534;DHT22;14973;51.460;7.008;2022-12-08T10:20:35;4.50;99.90
27534;DHT22;14973;51.460;7.008;2022-12-08T10:25:44;4.50;99.90
27534;DHT22;14973;51.460;7.008;2022-12-08T10:28:10;4.40;99.90
27534;DHT22;14973;51.460;7.008;2022-12-08T10:30:36;4.50;99.90
27534;DHT22;14973;51.460;7.008;2022-12-08T10:33:02;4.50;99.90
27534;DHT22;14973;51.460;7.008;2022-12-08T10:35:45;4.50;99.90
27534;DHT22;14973;51.460;7.008;2022-12-08T10:38:26;4.40;99.90
27534;DHT22;14973;51.460;7.008;2022-12-08T10:41:20;4.40;99.90
27534;DHT22;14973;51.460;7.008;2022-12-08T10:43:51;4.40;99.90
27534;DHT22;14973;51.460;7.008;2022-12-08T10:46:19;4.50;99.90
27534;DHT22;14973;51.460;7.008;2022-12-08T10:51:44;4.40;99.90
27534;DHT22;14973;51.460;7.008;2022-12-08T10:54:32;4.40;99.90
27534;DHT22;14973;51.460;7.008;2022-12-08T10:56:58;4.30;99.90
27534;DHT22;14973;51.460;7.008;2022-12-08T10:59:24;4.40;99.90
27534;DHT22;14973;51.460;7.008;2022-12-08T11:01:54;4.40;99.90
27534;DHT22;14973;51.460;7.008;2022-12-08T11:04:30;4.40;99.90
27534;DHT22;14973;51.460;7.008;2022-12-08T11:06:57;4.40;99.90
27534;DHT22;14973;51.460;7.008;2022-12-08T11:09:47;4.40;99.90
27534;DHT22;14973;51.460;7.008;2022-12-08T11:12:17;4.40;99.90
27534;DHT22;14973;51.460;7.008;2022-12-08T11:20:03;4.60;99.90
27534;DHT22;14973;51.460;7.008;2022-12-08T11:22:37;4.60;99.90
27534;DHT22;14973;51.460;7.008;2022-12-08T11:27:52;4.60;99.90
27534;DHT22;14973;51.460;7.008;2022-12-08T11:30:23;4.50;99.90
27534;DHT22;14973;51.460;7.008;2022-12-08T11:33:17;4.50;99.90
27534;DHT22;14973;51.460;7.008;2022-12-08T11:35:45;4.50;99.90
27534;DHT22;14973;51.460;7.008;2022-12-08T11:38:20;4.60;99.90
27534;DHT22;14973;51.460;7.008;2022-12-08T11:40:49;4.50;99.90
27534;DHT22;14973;51.460;7.008;2022-12-08T11:46:02;4.60;99.90
27534;DHT22;14973;51.460;7.008;2022-12-08T11:48:50;4.60;99.90
27534;DHT22;14973;51.460;7.008;2022-12-08T11:56:38;4.60;99.90
27534;DHT22;14973;51.460;7.008;2022-12-08T12:01:47;4.50;99.90
27534;DHT22;14973;51.460;7.008;2022-12-08T12:04:52;4.60;99.90
27534;DHT22;14973;51.460;7.008;2022-12-08T12:10:45;4.50;99.90
27534;DHT22;14973;51.460;7.008;2022-12-08T12:13:52;4.50;99.90
27534;DHT22;14973;51.460;7.008;2022-12-08T12:19:18;4.40;99.90
27534;DHT22;14973;51.460;7.008;2022-12-08T12:21:49;4.40;99.90
27534;DHT22;14973;51.460;7.008;2022-12-08T12:24:23;4.20;99.90
27534;DHT22;14973;51.460;7.008;2022-12-08T12:29:20;4.00;99.90
27534;DHT22;14973;51.460;7.008;2022-12-08T12:31:52;4.00;99.90
27534;DHT22;14973;51.460;7.008;2022-12-08T12:34:26;3.90;99.90
27534;DHT22;14973;51.460;7.008;2022-12-08T12:36:55;3.90;99.90
27534;DHT22;14973;51.460;7.008;2022-12-08T12:39:25;3.90;99.90
27534;DHT22;14973;51.460;7.008;2022-12-08T12:41:54;3.90;99.90
27534;DHT22;14973;51.460;7.008;2022-12-08T12:44:23;3.90;99.90
27534;DHT22;14973;51.460;7.008;2022-12-08T12:49:51;3.80;99.90
27534;DHT22;14973;51.460;7.008;2022-12-08T12:57:21;3.80;99.90
27534;DHT22;14973;51.460;7.008;2022-12-08T13:02:37;3.70;99.90
27534;DHT22;14973;51.460;7.008;2022-12-08T13:05:13;3.80;99.90
27534;DHT22;14973;51.460;7.008;2022-12-08T13:07:41;3.80;99.90
27534;DHT22;14973;51.460;7.008;2022-12-08T13:10:38;3.90;99.90
27534;DHT22;14973;51.460;7.008;2022-12-08T13:16:00;3.90;99.90
27534;DHT22;14973;51.460;7.008;2022-12-08T13:18:45;3.90;99.90
27534;DHT22;14973;51.460;7.008;2022-12-08T13:21:35;4.00;99.90
27534;DHT22;14973;51.460;7.008;2022-12-08T13:29:31;4.20;99.90
27534;DHT22;14973;51.460;7.008;2022-12-08T13:34:55;4.10;99.90
27534;DHT22;14973;51.460;7.008;2022-12-08T13:37:30;4.10;99.90
27534;DHT22;14973;51.460;7.008;2022-12-08T13:40:05;4.00;99.90
27534;DHT22;14973;51.460;7.008;2022-12-08T13:45:39;3.90;99.90
27534;DHT22;14973;51.460;7.008;2022-12-08T13:51:12;3.90;99.90
27534;DHT22;14973;51.460;7.008;2022-12-08T13:53:40;3.80;99.90
27534;DHT22;14973;51.460;7.008;2022-12-08T13:56:09;3.70;99.90
27534;DHT22;14973;51.460;7.008;2022-12-08T13:58:38;3.70;99.90
27534;DHT22;14973;51.460;7.008;2022-12-08T14:01:37;3.70;99.90
27534;DHT22;14973;51.460;7.008;2022-12-08T14:04:05;3.60;99.90
27534;DHT22;14973;51.460;7.008;2022-12-08T14:06:35;3.70;99.90
27534;DHT22;14973;51.460;7.008;2022-12-08T14:09:05;3.70;99.90
27534;DHT22;14973;51.460;7.008;2022-12-08T14:11:40;3.80;99.90
27534;DHT22;14973;51.460;7.008;2022-12-08T14:14:16;3.80;99.90
27534;DHT22;14973;51.460;7.008;2022-12-08T14:16:51;3.80;99.90
27534;DHT22;14973;51.460;7.008;2022-12-08T14:19:26;3.70;99.90
27534;DHT22;14973;51.460;7.008;2022-12-08T14:22:12;3.70;99.90
27534;DHT22;14973;51.460;7.008;2022-12-08T14:24:47;3.70;99.90
27534;DHT22;14973;51.460;7.008;2022-12-08T14:27:24;3.60;99.90
27534;DHT22;14973;51.460;7.008;2022-12-08T14:29:55;3.60;99.90
27534;DHT22;14973;51.460;7.008;2022-12-08T14:32:32;3.60;99.90
27534;DHT22;14973;51.460;7.008;2022-12-08T14:37:45;3.60;99.90
27534;DHT22;14973;51.460;7.008;2022-12-08T14:42:46;3.70;99.90
27534;DHT22;14973;51.460;7.008;2022-12-08T14:45:14;3.70;99.90
27534;DHT22;14973;51.460;7.008;2022-12-08T14:47:40;3.60;99.90
27534;DHT22;14973;51.460;7.008;2022-12-08T14:53:00;3.60;99.90
27534;DHT22;14973;51.460;7.008;2022-12-08T14:55:28;3.60;99.90
27534;DHT22;14973;51.460;7.008;2022-12-08T14:57:58;3.60;99.90
27534;DHT22;14973;51.460;7.008;2022-12-08T15:00:24;3.60;99.90
27534;DHT22;14973;51.460;7.008;2022-12-08T15:02:50;3.70;99.90
27534;DHT22;14973;51.460;7.008;2022-12-08T15:05:18;3.60;99.90
27534;DHT22;14973;51.460;7.008;2022-12-08T15:07:47;3.60;99.90
27534;DHT22;14973;51.460;7.008;2022-12-08T15:12:54;3.60;99.90
27534;DHT22;14973;51.460;7.008;2022-12-08T15:15:21;3.60;99.90
27534;DHT22;14973;51.460;7.008;2022-12-08T15:20:40;3.70;99.90
27534;DHT22;14973;51.460;7.008;2022-12-08T15:23:31;3.70;99.90
27534;DHT22;14973;51.460;7.008;2022-12-08T15:25:58;3.60;99.90
27534;DHT22;14973;51.460;7.008;2022-12-08T15:28:26;3.70;99.90
27534;DHT22;14973;51.460;7.008;2022-12-08T15:30:53;3.70;99.90
27534;DHT22;14973;51.460;7.008;2022-12-08T15:33:19;3.70;99.90
27534;DHT22;14973;51.460;7.008;2022-12-08T15:35:46;3.60;99.90
27534;DHT22;14973;51.460;7.008;2022-12-08T15:40:50;3.60;99.90
27534;DHT22;14973;51.460;7.008;2022-12-08T15:43:15;3.70;99.90
27534;DHT22;14973;51.460;7.008;2022-12-08T15:45:41;3.70;99.90
27534;DHT22;14973;51.460;7.008;2022-12-08T15:48:19;3.70;99.90
27534;DHT22;14973;51.460;7.008;2022-12-08T15:50:46;3.60;99.90
27534;DHT22;14973;51.460;7.008;2022-12-08T15:53:12;3.70;99.90
27534;DHT22;14973;51.460;7.008;2022-12-08T15:55:38;3.70;99.90
27534;DHT22;14973;51.460;7.008;2022-12-08T15:58:05;3.70;99.90
27534;DHT22;14973;51.460;7.008;2022-12-08T16:00:33;3.70;99.90
27534;DHT22;14973;51.460;7.008;2022-12-08T16:03:00;3.80;99.90
27534;DHT22;14973;51.460;7.008;2022-12-08T16:05:27;3.70;99.90
27534;DHT22;14973;51.460;7.008;2022-12-08T16:07:54;3.70;99.90
27534;DHT22;14973;51.460;7.008;2022-12-08T16:10:25;3.80;99.90
27534;DHT22;14973;51.460;7.008;2022-12-08T16:12:51;3.80;99.90
27534;DHT22;14973;51.460;7.008;2022-12-08T16:15:41;3.80;99.90
27534;DHT22;14973;51.460;7.008;2022-12-08T16:18:15;3.90;99.90
27534;DHT22;14973;51.460;7.008;2022-12-08T16:20:42;3.90;99.90
27534;DHT22;14973;51.460;7.008;2022-12-08T16:23:08;3.90;99.90
27534;DHT22;14973;51.460;7.008;2022-12-08T16:25:33;3.90;99.90
27534;DHT22;14973;51.460;7.008;2022-12-08T16:27:59;3.90;99.90
27534;DHT22;14973;51.460;7.008;2022-12-08T16:30:25;3.90;99.90
27534;DHT22;14973;51.460;7.008;2022-12-08T16:32:50;3.90;99.90
27534;DHT22;14973;51.460;7.008;2022-12-08T16:35:16;3.90;99.90
27534;DHT22;14973;51.460;7.008;2022-12-08T16:37:42;3.90;99.90
27534;DHT22;14973;51.460;7.008;2022-12-08T16:40:10;3.90;99.90
27534;DHT22;14973;51.460;7.008;2022-12-08T16:42:35;3.90;99.90
27534;DHT22;14973;51.460;7.008;2022-12-08T16:47:36;3.90;99.90
27534;DHT22;14973;51.460;7.008;2022-12-08T16:50:07;3.90;99.90
27534;DHT22;14973;51.460;7.008;2022-12-08T16:52:33;3.90;99.90
27534;DHT22;14973;51.460;7.008;2022-12-08T16:54:59;3.90;99.90
27534;DHT22;14973;51.460;7.008;2022-12-08T16:57:25;4.00;99.90
27534;DHT22;14973;51.460;7.008;2022-12-08T16:59:50;3.90;99.90
27534;DHT22;14973;51.460;7.008;2022-12-08T17:02:16;4.00;99.90
27534;DHT22;14973;51.460;7.008;2022-12-08T17:04:42;4.00;99.90
27534;DHT22;14973;51.460;7.008;2022-12-08T17:07:07;4.00;99.90
27534;DHT22;14973;51.460;7.008;2022-12-08T17:09:33;4.00;99.90
27534;DHT22;14973;51.460;7.008;2022-12-08T17:11:58;4.00;99.90
27534;DHT22;14973;51.460;7.008;2022-12-08T17:14:24;4.00;99.90
27534;DHT22;14973;51.460;7.008;2022-12-08T17:16:50;4.00;99.90
27534;DHT22;14973;51.460;7.008;2022-12-08T17:19:16;4.00;99.90
27534;DHT22;14973;51.460;7.008;2022-12-08T17:21:42;4.00;99.90
27534;DHT22;14973;51.460;7.008;2022-12-08T17:24:08;4.00;99.90
27534;DHT22;14973;51.460;7.008;2022-12-08T17:26:34;4.10;99.90
27534;DHT22;14973;51.460;7.008;2022-12-08T17:29:01;4.00;99.90
27534;DHT22;14973;51.460;7.008;2022-12-08T17:31:27;4.10;99.90
27534;DHT22;14973;51.460;7.008;2022-12-08T17:33:53;4.10;99.90
27534;DHT22;14973;51.460;7.008;2022-12-08T17:36:18;4.10;99.90
27534;DHT22;14973;51.460;7.008;2022-12-08T17:38:46;4.10;99.90
27534;DHT22;14973;51.460;7.008;2022-12-08T17:41:11;4.10;99.90
27534;DHT22;14973;51.460;7.008;2022-12-08T17:43:37;4.00;99.90
27534;DHT22;14973;51.460;7.008;2022-12-08T17:46:03;4.10;99.90
27534;DHT22;14973;51.460;7.008;2022-12-08T17:48:29;4.10;99.90
27534;DHT22;14973;51.460;7.008;2022-12-08T17:50:55;4.10;99.90
27534;DHT22;14973;51.460;7.008;2022-12-08T17:53:21;4.10;99.90